Time;durP1;ratioP1;P1;durP2;ratioP2;P2;SDS_P1;SDS_P2;PMS_P1;PMS_P2;Temp;Humidity;BMP_temperature;BMP_pressure;BME280_temperature;BME280_humidity;BME280_pressure;Samples;Min_cycle;Max_cycle;Signal;HPM_P1;HPM_P2
2022/08/05 00:03:55;;;;;;;13.95;6.50;;;;;;;;;;10217789;28;20046;-66
2022/08/05 00:08:52;;;;;;;13.05;6.32;;;;;;;;;;10214455;28;20044;-66
2022/08/05 00:13:49;;;;;;;12.95;5.93;;;;;;;;;;10215141;28;20065;-66
2022/08/05 00:18:48;;;;;;;13.85;5.22;;;;;;;;;;10215612;28;20048;-66
2022/08/05 00:23:46;;;;;;;14.07;5.05;;;;;;;;;;10218999;28;20124;-66
2022/08/05 00:29:03;;;;;;;12.52;5.13;;;;;;;;;;10206696;28;20052;-66
2022/08/05 00:33:59;;;;;;;8.10;4.13;;;;;;;;;;10216170;28;20045;-66
2022/08/05 00:39:15;;;;;;;12.80;4.30;;;;;;;;;;10214239;28;20056;-65
2022/08/05 00:44:12;;;;;;;10.25;4.07;;;;;;;;;;10206565;28;20047;-64
2022/08/05 00:49:08;;;;;;;8.65;2.88;;;;;;;;;;10208514;28;20473;-65
2022/08/05 00:54:10;;;;;;;7.03;2.38;;;;;;;;;;10223863;28;20480;-65
2022/08/05 00:59:07;;;;;;;6.88;2.70;;;;;;;;;;10210554;28;20061;-65
2022/08/05 01:04:04;;;;;;;5.80;2.47;;;;;;;;;;10209983;28;20544;-66
2022/08/05 01:09:10;;;;;;;5.03;2.00;;;;;;;;;;10215686;28;20045;-66
2022/08/05 01:14:21;;;;;;;6.65;1.90;;;;;;;;;;10206430;28;20052;-66
2022/08/05 01:19:32;;;;;;;8.27;2.55;;;;;;;;;;10212375;28;20045;-66
2022/08/05 01:25:00;;;;;;;6.63;1.77;;;;;;;;;;10220378;28;20049;-66
2022/08/05 01:30:01;;;;;;;6.13;1.85;;;;;;;;;;10224381;28;20056;-66
2022/08/05 01:35:05;;;;;;;6.05;1.70;;;;;;;;;;10242247;28;20053;-67
2022/08/05 01:40:07;;;;;;;4.28;2.03;;;;;;;;;;10214306;28;20471;-65
2022/08/05 01:45:05;;;;;;;10.50;2.35;;;;;;;;;;10217826;28;20076;-65
2022/08/05 01:50:04;;;;;;;3.13;1.45;;;;;;;;;;10209583;28;20049;-68
2022/08/05 01:55:02;;;;;;;12.13;1.90;;;;;;;;;;10221753;28;20506;-67
2022/08/05 02:00:01;;;;;;;10.05;3.33;;;;;;;;;;10202289;28;20426;-68
2022/08/05 02:04:59;;;;;;;6.18;1.75;;;;;;;;;;10220120;28;20120;-67
2022/08/05 02:09:55;;;;;;;8.23;2.83;;;;;;;;;;10218307;28;20493;-67
2022/08/05 02:14:59;;;;;;;3.35;1.25;;;;;;;;;;10209159;28;20092;-64
2022/08/05 02:20:00;;;;;;;6.97;2.22;;;;;;;;;;10213552;28;21034;-62
2022/08/05 02:25:00;;;;;;;4.35;1.70;;;;;;;;;;10213882;28;20049;-63
2022/08/05 02:29:59;;;;;;;3.88;1.60;;;;;;;;;;10217422;28;20037;-64
2022/08/05 02:35:03;;;;;;;4.93;1.63;;;;;;;;;;10215492;28;20041;-64
2022/08/05 02:40:09;;;;;;;6.30;1.50;;;;;;;;;;10230668;28;20050;-65
2022/08/05 02:45:07;;;;;;;3.35;1.40;;;;;;;;;;10226463;28;20570;-68
2022/08/05 02:50:06;;;;;;;4.53;1.95;;;;;;;;;;10230976;28;20137;-67
2022/08/05 02:55:07;;;;;;;10.47;2.53;;;;;;;;;;10203895;28;20077;-67
2022/08/05 03:00:06;;;;;;;5.75;1.88;;;;;;;;;;10251424;28;20057;-67
2022/08/05 03:05:06;;;;;;;4.70;2.13;;;;;;;;;;10221031;28;20434;-65
2022/08/05 03:10:02;;;;;;;6.00;2.53;;;;;;;;;;10215777;28;20049;-65
2022/08/05 03:14:59;;;;;;;6.75;2.40;;;;;;;;;;10222313;28;20053;-64
2022/08/05 03:19:55;;;;;;;6.15;2.38;;;;;;;;;;10221293;28;20087;-64
2022/08/05 03:24:54;;;;;;;6.53;2.30;;;;;;;;;;10213981;28;20045;-63
2022/08/05 03:29:57;;;;;;;6.38;2.38;;;;;;;;;;10226149;28;20494;-63
2022/08/05 03:35:04;;;;;;;4.72;2.15;;;;;;;;;;10215488;28;20509;-63
2022/08/05 03:40:02;;;;;;;7.75;2.50;;;;;;;;;;10209748;28;20520;-65
2022/08/05 03:45:00;;;;;;;5.85;2.88;;;;;;;;;;10219061;28;20133;-64
2022/08/05 03:50:17;;;;;;;6.75;2.80;;;;;;;;;;10221057;28;20082;-68
2022/08/05 03:55:20;;;;;;;10.20;2.70;;;;;;;;;;10222642;28;20045;-67
2022/08/05 04:00:38;;;;;;;6.13;3.05;;;;;;;;;;10212340;28;20055;-64
2022/08/05 04:05:37;;;;;;;7.90;2.50;;;;;;;;;;10218037;28;20043;-64
2022/08/05 04:10:37;;;;;;;7.13;2.70;;;;;;;;;;10216463;28;20049;-64
2022/08/05 04:15:34;;;;;;;9.07;2.35;;;;;;;;;;10219244;28;20045;-65
2022/08/05 04:20:31;;;;;;;7.53;2.42;;;;;;;;;;10218394;28;20141;-65
2022/08/05 04:25:28;;;;;;;5.45;2.45;;;;;;;;;;10213090;28;20057;-65
2022/08/05 04:30:45;;;;;;;11.02;3.38;;;;;;;;;;10198313;28;20062;-68
2022/08/05 04:35:43;;;;;;;5.07;2.67;;;;;;;;;;10207544;28;20060;-67
2022/08/05 04:41:00;;;;;;;8.35;3.13;;;;;;;;;;10209008;28;20042;-66
2022/08/05 04:45:58;;;;;;;6.82;2.83;;;;;;;;;;10203267;28;20046;-66
2022/08/05 04:50:55;;;;;;;9.05;2.67;;;;;;;;;;10216215;28;20053;-66
2022/08/05 04:55:59;;;;;;;5.40;2.60;;;;;;;;;;10214160;28;20111;-67
2022/08/05 05:01:11;;;;;;;6.03;3.00;;;;;;;;;;10209578;28;20584;-67
2022/08/05 05:06:11;;;;;;;6.55;2.75;;;;;;;;;;10208455;28;20101;-67
2022/08/05 05:11:27;;;;;;;5.68;3.53;;;;;;;;;;10204230;28;20128;-66
2022/08/05 05:16:37;;;;;;;7.00;2.88;;;;;;;;;;10209231;28;20064;-65
2022/08/05 05:21:34;;;;;;;9.30;3.50;;;;;;;;;;10206492;28;20103;-65
2022/08/05 05:26:33;;;;;;;5.85;3.05;;;;;;;;;;10218659;28;20049;-65
2022/08/05 05:31:30;;;;;;;7.03;3.40;;;;;;;;;;10209535;28;20083;-65
2022/08/05 05:36:26;;;;;;;6.40;3.25;;;;;;;;;;10210561;28;20084;-65
2022/08/05 05:41:25;;;;;;;8.63;3.95;;;;;;;;;;10203803;28;20052;-65
2022/08/05 05:46:36;;;;;;;7.07;2.95;;;;;;;;;;10212170;28;20070;-64
2022/08/05 05:51:35;;;;;;;10.68;4.70;;;;;;;;;;10203618;28;20096;-64
2022/08/05 05:56:46;;;;;;;6.35;3.05;;;;;;;;;;10202272;28;20696;-64
2022/08/05 06:01:42;;;;;;;8.90;3.63;;;;;;;;;;10209692;28;20045;-65
2022/08/05 06:06:53;;;;;;;7.05;3.45;;;;;;;;;;10204691;28;20827;-64
2022/08/05 06:11:56;;;;;;;5.53;3.25;;;;;;;;;;10215561;28;20041;-63
2022/08/05 06:16:58;;;;;;;5.85;3.30;;;;;;;;;;10214948;28;20555;-64
2022/08/05 06:21:54;;;;;;;7.78;3.17;;;;;;;;;;10221723;28;20116;-64
2022/08/05 06:26:50;;;;;;;9.50;3.33;;;;;;;;;;10226712;28;20103;-65
2022/08/05 06:31:48;;;;;;;6.10;3.60;;;;;;;;;;10216722;28;20050;-65
2022/08/05 06:36:46;;;;;;;7.47;3.92;;;;;;;;;;10218195;28;20069;-64
2022/08/05 06:41:53;;;;;;;9.02;2.95;;;;;;;;;;10213716;28;20130;-65
2022/08/05 06:46:49;;;;;;;7.03;3.63;;;;;;;;;;10213453;28;20045;-69
2022/08/05 06:51:46;;;;;;;9.35;4.15;;;;;;;;;;10200296;28;20047;-65
2022/08/05 06:56:42;;;;;;;6.43;3.92;;;;;;;;;;10201189;28;20072;-65
2022/08/05 07:01:59;;;;;;;8.40;3.45;;;;;;;;;;10214401;28;20037;-66
2022/08/05 07:06:55;;;;;;;8.35;3.42;;;;;;;;;;10205659;28;20548;-69
2022/08/05 07:11:54;;;;;;;11.10;2.90;;;;;;;;;;10199698;28;20045;-69
2022/08/05 07:16:59;;;;;;;;;;;;;;;;;;10213863;28;20069;-69
2022/08/05 07:22:20;;;;;;;7.03;3.38;;;;;;;;;;10215789;28;19952;-72
2022/08/05 07:27:24;;;;;;;7.47;3.20;;;;;;;;;;10196354;28;20549;-69
2022/08/05 07:32:40;;;;;;;5.28;2.92;;;;;;;;;;10202967;28;20049;-68
2022/08/05 07:37:37;;;;;;;9.88;3.15;;;;;;;;;;10222896;28;20045;-67
2022/08/05 07:42:34;;;;;;;7.05;3.13;;;;;;;;;;10212142;28;20448;-66
2022/08/05 07:47:31;;;;;;;8.73;3.38;;;;;;;;;;10209378;28;20046;-66
2022/08/05 07:52:42;;;;;;;5.90;2.85;;;;;;;;;;10214327;28;20598;-67
2022/08/05 07:57:39;;;;;;;6.45;2.90;;;;;;;;;;10189399;28;20080;-68
2022/08/05 08:02:54;;;;;;;7.10;3.40;;;;;;;;;;10213973;28;20148;-67
2022/08/05 08:08:11;;;;;;;7.85;3.50;;;;;;;;;;10190490;28;20588;-69
2022/08/05 08:13:10;;;;;;;9.38;3.40;;;;;;;;;;10194117;28;20054;-67
2022/08/05 08:18:07;;;;;;;5.97;2.70;;;;;;;;;;10205193;28;20049;-68
2022/08/05 08:23:10;;;;;;;5.60;3.15;;;;;;;;;;10203439;28;20053;-67
2022/08/05 08:28:26;;;;;;;10.05;3.92;;;;;;;;;;10207634;28;20046;-67
2022/08/05 08:33:33;;;;;;;7.88;3.45;;;;;;;;;;10198315;28;20045;-67
2022/08/05 08:38:33;;;;;;;6.38;3.75;;;;;;;;;;10209147;28;20133;-68
2022/08/05 08:43:34;;;;;;;8.38;3.15;;;;;;;;;;10204902;28;20567;-68
2022/08/05 08:48:52;;;;;;;8.57;2.72;;;;;;;;;;10199897;28;20042;-68
2022/08/05 08:54:09;;;;;;;6.82;2.30;;;;;;;;;;10212062;28;20060;-67
2022/08/05 08:59:10;;;;;;;7.07;2.55;;;;;;;;;;10194488;28;20437;-67
2022/08/05 09:04:15;;;;;;;7.47;2.47;;;;;;;;;;10207295;28;20049;-67
2022/08/05 09:09:11;;;;;;;6.82;2.55;;;;;;;;;;10217418;28;20091;-68
2022/08/05 09:14:09;;;;;;;7.22;2.50;;;;;;;;;;10209943;28;20041;-71
2022/08/05 09:19:26;;;;;;;6.90;1.90;;;;;;;;;;10206510;28;20122;-70
2022/08/05 09:24:55;;;;;;;7.50;2.30;;;;;;;;;;10212151;28;20041;-72
2022/08/05 09:29:53;;;;;;;6.60;2.05;;;;;;;;;;10215205;28;20084;-70
2022/08/05 09:34:51;;;;;;;6.72;2.10;;;;;;;;;;10222965;28;20049;-69
2022/08/05 09:39:47;;;;;;;7.05;2.90;;;;;;;;;;10202041;28;20042;-66
2022/08/05 09:44:52;;;;;;;8.10;2.25;;;;;;;;;;10252855;28;20049;-66
2022/08/05 09:49:52;;;;;;;5.30;2.50;;;;;;;;;;10203292;28;20421;-67
2022/08/05 09:55:04;;;;;;;4.60;2.00;;;;;;;;;;10201721;28;20057;-66
2022/08/05 10:00:24;;;;;;;5.40;2.05;;;;;;;;;;10206593;28;20061;-67
2022/08/05 10:05:28;;;;;;;7.13;2.13;;;;;;;;;;10233539;28;20054;-67
2022/08/05 10:10:35;;;;;;;7.78;2.38;;;;;;;;;;10207338;28;20096;-68
2022/08/05 10:15:32;;;;;;;6.82;1.92;;;;;;;;;;10201139;28;20148;-68
2022/08/05 10:20:30;;;;;;;3.85;2.22;;;;;;;;;;10206918;28;20104;-70
2022/08/05 10:25:28;;;;;;;4.78;1.80;;;;;;;;;;10200390;28;20099;-69
2022/08/05 10:30:25;;;;;;;3.53;1.95;;;;;;;;;;10205992;28;20460;-65
2022/08/05 10:35:42;;;;;;;4.97;1.92;;;;;;;;;;10198002;28;20050;-66
2022/08/05 10:40:44;;;;;;;6.30;2.33;;;;;;;;;;10208267;28;20057;-65
2022/08/05 10:45:41;;;;;;;5.70;2.10;;;;;;;;;;10197323;28;20052;-65
2022/08/05 10:50:57;;;;;;;4.65;1.90;;;;;;;;;;10194806;28;20057;-66
2022/08/05 10:56:04;;;;;;;4.32;1.20;;;;;;;;;;10193211;28;20502;-67
2022/08/05 11:01:27;;;;;;;3.97;1.80;;;;;;;;;;10214846;28;20073;-65
2022/08/05 11:06:56;;;;;;;5.03;1.67;;;;;;;;;;10213443;28;20060;-66
2022/08/05 11:11:53;;;;;;;6.45;1.83;;;;;;;;;;10203200;28;20116;-66
2022/08/05 11:17:09;;;;;;;4.88;2.38;;;;;;;;;;10209811;28;20045;-66
2022/08/05 11:22:37;;;;;;;6.18;2.25;;;;;;;;;;10204533;28;20129;-66
2022/08/05 11:27:37;;;;;;;6.03;1.88;;;;;;;;;;10223716;28;20588;-66
2022/08/05 11:32:47;;;;;;;3.88;1.30;;;;;;;;;;10211606;28;20041;-66
2022/08/05 11:37:52;;;;;;;4.78;1.23;;;;;;;;;;10221563;28;20037;-66
2022/08/05 11:43:21;;;;;;;3.55;0.90;;;;;;;;;;10222363;28;20048;-67
2022/08/05 11:48:40;;;;;;;3.35;1.10;;;;;;;;;;10217553;28;20038;-67
2022/08/05 11:53:39;;;;;;;3.75;1.20;;;;;;;;;;10224281;28;20069;-66
2022/08/05 11:58:38;;;;;;;5.15;1.65;;;;;;;;;;10211981;28;20042;-67
2022/08/05 12:03:44;;;;;;;3.85;1.10;;;;;;;;;;10200054;28;20469;-67
2022/08/05 12:08:58;;;;;;;2.92;1.00;;;;;;;;;;10204258;28;20072;-66
2022/08/05 12:13:55;;;;;;;2.97;1.23;;;;;;;;;;10208022;28;20069;-66
2022/08/05 12:18:54;;;;;;;3.65;1.58;;;;;;;;;;10213404;28;20057;-67
2022/08/05 12:23:52;;;;;;;10.60;2.33;;;;;;;;;;10222482;28;20493;-67
2022/08/05 12:28:48;;;;;;;5.72;1.63;;;;;;;;;;10217108;28;20092;-67
2022/08/05 12:33:45;;;;;;;4.80;2.05;;;;;;;;;;10214462;28;20065;-67
2022/08/05 12:38:42;;;;;;;6.72;2.10;;;;;;;;;;10208434;28;20467;-66
2022/08/05 12:43:51;;;;;;;5.63;2.03;;;;;;;;;;10208344;28;20041;-66
2022/08/05 12:48:58;;;;;;;4.50;2.10;;;;;;;;;;10197074;28;20044;-66
2022/08/05 12:53:59;;;;;;;6.90;2.22;;;;;;;;;;10204329;28;20112;-66
2022/08/05 12:59:12;;;;;;;3.20;1.85;;;;;;;;;;10205953;28;20076;-66
2022/08/05 13:04:35;;;;;;;4.07;1.33;;;;;;;;;;10211543;28;20061;-66
2022/08/05 13:09:50;;;;;;;3.67;1.30;;;;;;;;;;10211690;28;20448;-66
2022/08/05 13:14:52;;;;;;;;;;;;;;;;;;10212714;28;20041;-68
2022/08/05 13:20:05;;;;;;;6.70;2.35;;;;;;;;;;10207261;28;20377;-68
2022/08/05 13:25:07;;;;;;;3.15;1.60;;;;;;;;;;10209714;28;20057;-68
2022/08/05 13:30:18;;;;;;;5.13;1.23;;;;;;;;;;10200752;28;20139;-67
2022/08/05 13:35:34;;;;;;;3.75;1.10;;;;;;;;;;10211540;28;20112;-68
2022/08/05 13:40:46;;;;;;;;;;;;;;;;;;10208214;28;20046;-67
2022/08/05 13:45:45;;;;;;;3.70;0.82;;;;;;;;;;10208984;28;20355;-68
2022/08/05 13:50:42;;;;;;;1.95;0.80;;;;;;;;;;10198217;28;20145;-68
2022/08/05 13:55:39;;;;;;;2.42;1.00;;;;;;;;;;10199601;28;20073;-69
2022/08/05 14:00:46;;;;;;;7.70;2.35;;;;;;;;;;10204296;28;20050;-69
2022/08/05 14:05:42;;;;;;;4.20;1.30;;;;;;;;;;10206126;28;20041;-69
2022/08/05 14:10:58;;;;;;;3.17;1.00;;;;;;;;;;10204758;28;20052;-69
2022/08/05 14:16:15;;;;;;;3.47;1.02;;;;;;;;;;10212932;28;20133;-69
2022/08/05 14:21:12;;;;;;;5.38;1.42;;;;;;;;;;10216840;28;20049;-69
2022/08/05 14:26:28;;;;;;;2.30;1.05;;;;;;;;;;10215023;28;20085;-70
2022/08/05 14:31:38;;;;;;;4.15;1.65;;;;;;;;;;10213035;28;20055;-69
2022/08/05 14:36:55;;;;;;;5.63;1.50;;;;;;;;;;10225412;28;20124;-69
2022/08/05 14:41:54;;;;;;;4.75;1.50;;;;;;;;;;10224219;28;20080;-69
2022/08/05 14:47:10;;;;;;;3.92;1.63;;;;;;;;;;10222574;28;20053;-68
2022/08/05 14:52:07;;;;;;;4.25;1.25;;;;;;;;;;10223997;28;20709;-69
2022/08/05 14:57:13;;;;;;;3.40;1.40;;;;;;;;;;10220854;28;20128;-68
2022/08/05 15:02:09;;;;;;;3.97;1.30;;;;;;;;;;10220254;28;20071;-69
2022/08/05 15:07:11;;;;;;;4.37;1.20;;;;;;;;;;10217196;28;20204;-68
2022/08/05 15:12:27;;;;;;;3.90;1.33;;;;;;;;;;10221382;28;20049;-68
2022/08/05 15:17:43;;;;;;;4.53;1.42;;;;;;;;;;10223630;28;20057;-68
2022/08/05 15:22:48;;;;;;;5.55;2.20;;;;;;;;;;10218471;28;20132;-68
2022/08/05 15:27:50;;;;;;;2.75;1.30;;;;;;;;;;10221778;28;20052;-69
2022/08/05 15:32:47;;;;;;;5.32;1.60;;;;;;;;;;10222613;28;20108;-68
2022/08/05 15:37:44;;;;;;;4.68;1.50;;;;;;;;;;10221474;28;20087;-68
2022/08/05 15:43:00;;;;;;;4.50;1.65;;;;;;;;;;10216687;28;20064;-69
2022/08/05 15:48:10;;;;;;;5.60;1.83;;;;;;;;;;10221040;28;20140;-69
2022/08/05 15:53:09;;;;;;;3.47;1.60;;;;;;;;;;10214235;28;20061;-69
2022/08/05 15:58:08;;;;;;;6.55;1.65;;;;;;;;;;10219821;28;20418;-69
2022/08/05 16:03:12;;;;;;;3.42;1.00;;;;;;;;;;10215142;28;20054;-68
2022/08/05 16:08:10;;;;;;;3.92;1.35;;;;;;;;;;10219503;28;20068;-69
2022/08/05 16:13:11;;;;;;;3.65;1.13;;;;;;;;;;10225361;28;20088;-69
2022/08/05 16:18:14;;;;;;;2.55;0.93;;;;;;;;;;10221488;28;20057;-69
2022/08/05 16:23:12;;;;;;;3.22;1.00;;;;;;;;;;10220511;28;20050;-70
2022/08/05 16:28:10;;;;;;;3.90;1.38;;;;;;;;;;10228098;28;20041;-69
2022/08/05 16:33:06;;;;;;;2.90;1.08;;;;;;;;;;10221272;28;20159;-70
2022/08/05 16:38:03;;;;;;;2.80;0.95;;;;;;;;;;10227797;28;20132;-70
2022/08/05 16:43:21;;;;;;;4.80;1.70;;;;;;;;;;10216411;28;20710;-69
2022/08/05 16:48:19;;;;;;;2.30;0.98;;;;;;;;;;10218139;28;20409;-70
2022/08/05 16:53:21;;;;;;;2.83;1.55;;;;;;;;;;10217008;28;20076;-70
2022/08/05 16:58:39;;;;;;;1.83;1.20;;;;;;;;;;10222999;28;20069;-69
2022/08/05 17:03:36;;;;;;;6.05;1.58;;;;;;;;;;10210822;28;20056;-69
2022/08/05 17:08:34;;;;;;;3.83;1.38;;;;;;;;;;10217511;28;20041;-69
2022/08/05 17:13:48;;;;;;;3.03;1.35;;;;;;;;;;10222847;28;20053;-69
2022/08/05 17:18:45;;;;;;;5.95;1.20;;;;;;;;;;10223166;28;20041;-69
2022/08/05 17:23:43;;;;;;;6.45;1.23;;;;;;;;;;10217607;28;20186;-69
2022/08/05 17:29:01;;;;;;;1.95;0.90;;;;;;;;;;10210981;28;20045;-69
2022/08/05 17:34:02;;;;;;;6.75;2.25;;;;;;;;;;10216471;28;20093;-69
2022/08/05 17:38:59;;;;;;;3.00;1.30;;;;;;;;;;10219693;28;20049;-69
2022/08/05 17:43:55;;;;;;;4.43;1.52;;;;;;;;;;10211976;28;20045;-69
2022/08/05 17:48:54;;;;;;;3.47;1.13;;;;;;;;;;10222476;28;20052;-69
2022/08/05 17:53:50;;;;;;;4.82;1.45;;;;;;;;;;10222649;28;20529;-69
2022/08/05 17:58:50;;;;;;;3.85;1.70;;;;;;;;;;10217515;28;20049;-69
2022/08/05 18:03:47;;;;;;;4.03;0.90;;;;;;;;;;10213913;28;20065;-69
2022/08/05 18:09:00;;;;;;;3.00;1.08;;;;;;;;;;10223786;28;20038;-69
2022/08/05 18:14:02;;;;;;;3.50;0.65;;;;;;;;;;10216551;28;20061;-69
2022/08/05 18:19:02;;;;;;;4.57;1.38;;;;;;;;;;10215240;28;20052;-69
2022/08/05 18:23:59;;;;;;;1.83;0.90;;;;;;;;;;10221615;28;20037;-69
2022/08/05 18:28:55;;;;;;;1.88;0.65;;;;;;;;;;10222676;28;20077;-69
2022/08/05 18:33:52;;;;;;;3.05;0.85;;;;;;;;;;10228405;28;20049;-69
2022/08/05 18:38:51;;;;;;;3.20;1.00;;;;;;;;;;10215200;28;20484;-69
2022/08/05 18:43:48;;;;;;;2.95;0.98;;;;;;;;;;10224354;28;20582;-69
2022/08/05 18:48:47;;;;;;;2.70;0.85;;;;;;;;;;10220864;28;20046;-69
2022/08/05 18:53:47;;;;;;;2.47;0.88;;;;;;;;;;10214798;28;20068;-69
2022/08/05 18:58:45;;;;;;;2.58;1.10;;;;;;;;;;10213290;28;20088;-69
2022/08/05 19:03:46;;;;;;;1.83;0.88;;;;;;;;;;10223481;28;20077;-69
2022/08/05 19:08:51;;;;;;;3.13;1.10;;;;;;;;;;10222474;28;20041;-69
2022/08/05 19:13:47;;;;;;;2.20;1.10;;;;;;;;;;10220103;28;20072;-69
2022/08/05 19:18:56;;;;;;;5.68;1.38;;;;;;;;;;10216861;28;20083;-69
2022/08/05 19:23:53;;;;;;;3.00;0.60;;;;;;;;;;10227348;28;20073;-69
2022/08/05 19:29:03;;;;;;;2.20;0.77;;;;;;;;;;10218359;28;20056;-69
2022/08/05 19:34:02;;;;;;;2.65;0.90;;;;;;;;;;10219994;28;20041;-68
2022/08/05 19:38:58;;;;;;;2.58;0.88;;;;;;;;;;10224507;28;20084;-68
2022/08/05 19:44:04;;;;;;;2.95;0.77;;;;;;;;;;10236529;28;20061;-68
2022/08/05 19:49:09;;;;;;;3.67;1.27;;;;;;;;;;10212707;28;20104;-68
2022/08/05 19:54:12;;;;;;;4.47;0.90;;;;;;;;;;10219269;28;20145;-69
2022/08/05 19:59:26;;;;;;;2.00;0.60;;;;;;;;;;10212526;28;20057;-69
2022/08/05 20:04:43;;;;;;;3.25;0.68;;;;;;;;;;10209436;28;20072;-68
2022/08/05 20:09:41;;;;;;;1.83;0.50;;;;;;;;;;10212900;28;20045;-68
2022/08/05 20:14:51;;;;;;;2.78;0.60;;;;;;;;;;10207860;28;20073;-68
2022/08/05 20:19:48;;;;;;;3.92;1.23;;;;;;;;;;10212078;28;20041;-69
2022/08/05 20:24:44;;;;;;;1.90;0.60;;;;;;;;;;10212024;28;20501;-69
2022/08/05 20:29:41;;;;;;;1.67;0.68;;;;;;;;;;10209986;28;20493;-69
2022/08/05 20:34:52;;;;;;;3.08;0.85;;;;;;;;;;10223367;28;20132;-69
2022/08/05 20:39:49;;;;;;;3.47;0.90;;;;;;;;;;10226299;28;20128;-69
2022/08/05 20:44:46;;;;;;;3.10;0.98;;;;;;;;;;10226913;28;20048;-69
2022/08/05 20:49:43;;;;;;;1.92;0.52;;;;;;;;;;10225011;28;20157;-69
2022/08/05 20:54:40;;;;;;;1.40;0.68;;;;;;;;;;10220680;28;20043;-69
2022/08/05 20:59:39;;;;;;;1.88;0.55;;;;;;;;;;10216276;28;20409;-69
2022/08/05 21:04:55;;;;;;;5.68;0.93;;;;;;;;;;10216325;28;20132;-68
2022/08/05 21:09:52;;;;;;;1.25;0.47;;;;;;;;;;10220441;28;20052;-68
2022/08/05 21:14:49;;;;;;;2.72;0.88;;;;;;;;;;10205593;28;20034;-70
2022/08/05 21:19:45;;;;;;;1.70;0.50;;;;;;;;;;10221629;28;20170;-69
2022/08/05 21:24:46;;;;;;;4.53;0.80;;;;;;;;;;10215596;28;20281;-69
2022/08/05 21:29:47;;;;;;;2.47;0.50;;;;;;;;;;10218239;28;20041;-69
2022/08/05 21:34:46;;;;;;;2.58;0.55;;;;;;;;;;10217561;28;20033;-71
2022/08/05 21:40:03;;;;;;;2.80;0.80;;;;;;;;;;10216627;28;20511;-68
2022/08/05 21:45:01;;;;;;;1.77;0.63;;;;;;;;;;10227632;28;20046;-69
2022/08/05 21:49:57;;;;;;;1.67;0.50;;;;;;;;;;10223059;28;20041;-68
2022/08/05 21:54:57;;;;;;;1.90;0.50;;;;;;;;;;10213130;28;20115;-69
2022/08/05 22:00:08;;;;;;;4.35;0.80;;;;;;;;;;10216035;28;20053;-68
2022/08/05 22:05:07;;;;;;;4.35;1.02;;;;;;;;;;10217633;28;20056;-68
2022/08/05 22:10:05;;;;;;;2.83;0.65;;;;;;;;;;10219700;28;20076;-69
2022/08/05 22:15:07;;;;;;;2.67;0.50;;;;;;;;;;10219855;28;20060;-69
2022/08/05 22:20:05;;;;;;;4.07;0.82;;;;;;;;;;10211581;28;20057;-69
2022/08/05 22:30:46;;;;;;;3.63;0.82;;;;;;;;;;10219052;28;20060;-68
2022/08/05 22:35:53;;;;;;;5.30;1.10;;;;;;;;;;10216768;28;20072;-68
2022/08/05 22:40:49;;;;;;;6.43;1.20;;;;;;;;;;10215518;28;20049;-68
2022/08/05 22:45:50;;;;;;;3.25;0.68;;;;;;;;;;10211511;28;20460;-68
2022/08/05 22:50:46;;;;;;;5.32;0.70;;;;;;;;;;10218819;28;20730;-69
2022/08/05 22:55:53;;;;;;;3.47;0.95;;;;;;;;;;10216645;28;20046;-68
2022/08/05 23:00:54;;;;;;;3.85;0.70;;;;;;;;;;10221278;28;20099;-68
2022/08/05 23:05:54;;;;;;;4.15;0.70;;;;;;;;;;10230068;28;20687;-68
2022/08/05 23:10:50;;;;;;;3.95;0.65;;;;;;;;;;10220431;28;20104;-68
2022/08/05 23:15:51;;;;;;;5.53;0.68;;;;;;;;;;10230460;28;20103;-68
2022/08/05 23:20:47;;;;;;;4.75;0.50;;;;;;;;;;10228699;28;20068;-68
2022/08/05 23:25:44;;;;;;;8.60;1.95;;;;;;;;;;10221821;28;20053;-69
2022/08/05 23:30:50;;;;;;;4.05;0.70;;;;;;;;;;10215434;28;20072;-68
2022/08/05 23:35:49;;;;;;;3.75;0.63;;;;;;;;;;10218386;28;20069;-68
2022/08/05 23:40:46;;;;;;;3.13;1.00;;;;;;;;;;10223146;28;20073;-68
2022/08/05 23:45:45;;;;;;;2.10;0.50;;;;;;;;;;10214669;28;20425;-68
2022/08/05 23:50:41;;;;;;;3.25;0.50;;;;;;;;;;10221714;28;20564;-68
2022/08/05 23:55:40;;;;;;;1.92;0.60;;;;;;;;;;10222201;28;20077;-68
